sensor_id;sensor_type;location;lat;lon;timestamp;temperature;humidity
69208;SHT31;70114;47.690;8.898;2023-05-25T00:04:20;12.79;56.08
69208;SHT31;70114;47.690;8.898;2023-05-25T00:06:45;12.63;56.67
69208;SHT31;70114;47.690;8.898;2023-05-25T00:09:11;12.38;57.73
69208;SHT31;70114;47.690;8.898;2023-05-25T00:11:37;12.56;57.31
69208;SHT31;70114;47.690;8.898;2023-05-25T00:16:38;12.48;58.16
69208;SHT31;70114;47.690;8.898;2023-05-25T00:19:05;12.46;58.23
69208;SHT31;70114;47.690;8.898;2023-05-25T00:21:31;12.57;58.45
69208;SHT31;70114;47.690;8.898;2023-05-25T00:24:03;12.45;58.45
69208;SHT31;70114;47.690;8.898;2023-05-25T00:26:29;12.57;58.42
69208;SHT31;70114;47.690;8.898;2023-05-25T00:28:54;12.73;58.26
69208;SHT31;70114;47.690;8.898;2023-05-25T00:31:19;12.67;58.65
69208;SHT31;70114;47.690;8.898;2023-05-25T00:33:45;12.66;57.80
69208;SHT31;70114;47.690;8.898;2023-05-25T00:36:11;12.70;58.09
69208;SHT31;70114;47.690;8.898;2023-05-25T00:38:37;12.79;58.18
69208;SHT31;70114;47.690;8.898;2023-05-25T00:41:02;12.55;58.37
69208;SHT31;70114;47.690;8.898;2023-05-25T00:43:27;12.46;58.44
69208;SHT31;70114;47.690;8.898;2023-05-25T00:45:53;12.56;58.61
69208;SHT31;70114;47.690;8.898;2023-05-25T00:48:18;12.70;58.26
69208;SHT31;70114;47.690;8.898;2023-05-25T00:50:44;12.69;58.22
69208;SHT31;70114;47.690;8.898;2023-05-25T00:53:12;12.66;58.29
69208;SHT31;70114;47.690;8.898;2023-05-25T00:55:44;12.53;57.94
69208;SHT31;70114;47.690;8.898;2023-05-25T00:58:15;12.44;57.89
69208;SHT31;70114;47.690;8.898;2023-05-25T01:00:42;12.46;57.15
69208;SHT31;70114;47.690;8.898;2023-05-25T01:03:12;12.52;56.98
69208;SHT31;70114;47.690;8.898;2023-05-25T01:05:45;12.57;56.21
69208;SHT31;70114;47.690;8.898;2023-05-25T01:08:13;12.49;56.68
69208;SHT31;70114;47.690;8.898;2023-05-25T01:10:39;12.48;56.83
69208;SHT31;70114;47.690;8.898;2023-05-25T01:13:08;12.53;57.02
69208;SHT31;70114;47.690;8.898;2023-05-25T01:15:34;12.45;57.83
69208;SHT31;70114;47.690;8.898;2023-05-25T01:18:01;12.48;58.62
69208;SHT31;70114;47.690;8.898;2023-05-25T01:20:27;12.48;58.35
69208;SHT31;70114;47.690;8.898;2023-05-25T01:23:04;12.32;59.12
69208;SHT31;70114;47.690;8.898;2023-05-25T01:29:27;12.21;59.81
69208;SHT31;70114;47.690;8.898;2023-05-25T01:31:54;12.16;60.02
69208;SHT31;70114;47.690;8.898;2023-05-25T01:34:23;12.07;60.52
69208;SHT31;70114;47.690;8.898;2023-05-25T01:36:49;12.28;60.59
69208;SHT31;70114;47.690;8.898;2023-05-25T01:39:15;12.34;61.05
69208;SHT31;70114;47.690;8.898;2023-05-25T01:41:40;12.24;60.78
69208;SHT31;70114;47.690;8.898;2023-05-25T01:44:06;12.04;60.70
69208;SHT31;70114;47.690;8.898;2023-05-25T01:46:37;12.18;60.12
69208;SHT31;70114;47.690;8.898;2023-05-25T01:54:28;11.91;60.53
69208;SHT31;70114;47.690;8.898;2023-05-25T01:56:56;12.07;60.52
69208;SHT31;70114;47.690;8.898;2023-05-25T01:59:23;12.13;60.16
69208;SHT31;70114;47.690;8.898;2023-05-25T02:01:50;11.98;60.41
69208;SHT31;70114;47.690;8.898;2023-05-25T02:04:17;11.97;61.47
69208;SHT31;70114;47.690;8.898;2023-05-25T02:06:42;11.95;61.55
69208;SHT31;70114;47.690;8.898;2023-05-25T02:09:12;12.05;62.00
69208;SHT31;70114;47.690;8.898;2023-05-25T02:11:37;11.97;61.94
69208;SHT31;70114;47.690;8.898;2023-05-25T02:16:38;11.87;62.79
69208;SHT31;70114;47.690;8.898;2023-05-25T02:19:03;12.00;62.40
69208;SHT31;70114;47.690;8.898;2023-05-25T02:21:28;11.83;62.07
69208;SHT31;70114;47.690;8.898;2023-05-25T02:23:54;11.84;61.96
69208;SHT31;70114;47.690;8.898;2023-05-25T02:26:22;11.84;62.19
69208;SHT31;70114;47.690;8.898;2023-05-25T02:28:48;11.87;62.12
69208;SHT31;70114;47.690;8.898;2023-05-25T02:33:42;11.43;62.95
69208;SHT31;70114;47.690;8.898;2023-05-25T02:36:08;11.40;63.34
69208;SHT31;70114;47.690;8.898;2023-05-25T02:38:33;11.49;62.96
69208;SHT31;70114;47.690;8.898;2023-05-25T02:40:58;11.55;63.18
69208;SHT31;70114;47.690;8.898;2023-05-25T02:43:24;11.55;63.34
69208;SHT31;70114;47.690;8.898;2023-05-25T02:45:49;11.44;63.71
69208;SHT31;70114;47.690;8.898;2023-05-25T02:48:15;11.58;63.74
69208;SHT31;70114;47.690;8.898;2023-05-25T02:50:40;11.55;64.05
69208;SHT31;70114;47.690;8.898;2023-05-25T02:53:06;11.36;64.43
69208;SHT31;70114;47.690;8.898;2023-05-25T02:55:31;11.50;64.54
69208;SHT31;70114;47.690;8.898;2023-05-25T02:57:57;11.42;64.76
69208;SHT31;70114;47.690;8.898;2023-05-25T03:00:24;11.33;65.01
69208;SHT31;70114;47.690;8.898;2023-05-25T03:02:49;11.31;65.43
69208;SHT31;70114;47.690;8.898;2023-05-25T03:05:16;11.01;66.02
69208;SHT31;70114;47.690;8.898;2023-05-25T03:07:41;11.14;67.10
69208;SHT31;70114;47.690;8.898;2023-05-25T03:10:08;10.84;68.00
69208;SHT31;70114;47.690;8.898;2023-05-25T03:12:34;11.04;68.10
69208;SHT31;70114;47.690;8.898;2023-05-25T03:14:59;11.18;67.86
69208;SHT31;70114;47.690;8.898;2023-05-25T03:17:25;11.08;67.93
69208;SHT31;70114;47.690;8.898;2023-05-25T03:19:50;11.26;67.29
69208;SHT31;70114;47.690;8.898;2023-05-25T03:22:16;11.36;66.96
69208;SHT31;70114;47.690;8.898;2023-05-25T03:24:41;11.07;66.83
69208;SHT31;70114;47.690;8.898;2023-05-25T03:27:07;11.26;67.26
69208;SHT31;70114;47.690;8.898;2023-05-25T03:29:33;11.31;66.96
69208;SHT31;70114;47.690;8.898;2023-05-25T03:31:58;11.22;67.04
69208;SHT31;70114;47.690;8.898;2023-05-25T03:34:24;11.07;66.25
69208;SHT31;70114;47.690;8.898;2023-05-25T03:36:50;11.14;66.77
69208;SHT31;70114;47.690;8.898;2023-05-25T03:39:18;11.32;65.65
69208;SHT31;70114;47.690;8.898;2023-05-25T03:41:44;11.25;65.68
69208;SHT31;70114;47.690;8.898;2023-05-25T03:44:09;11.23;65.88
69208;SHT31;70114;47.690;8.898;2023-05-25T03:46:35;11.18;66.60
69208;SHT31;70114;47.690;8.898;2023-05-25T03:49:00;11.23;65.41
69208;SHT31;70114;47.690;8.898;2023-05-25T03:51:26;11.18;65.57
69208;SHT31;70114;47.690;8.898;2023-05-25T03:56:56;11.42;64.99
69208;SHT31;70114;47.690;8.898;2023-05-25T03:59:23;11.50;64.73
69208;SHT31;70114;47.690;8.898;2023-05-25T04:01:50;11.40;65.20
69208;SHT31;70114;47.690;8.898;2023-05-25T04:04:15;11.38;65.18
69208;SHT31;70114;47.690;8.898;2023-05-25T04:06:42;11.32;65.32
69208;SHT31;70114;47.690;8.898;2023-05-25T04:09:10;10.95;66.60
69208;SHT31;70114;47.690;8.898;2023-05-25T04:11:36;11.14;66.16
69208;SHT31;70114;47.690;8.898;2023-05-25T04:14:01;11.07;66.29
69208;SHT31;70114;47.690;8.898;2023-05-25T04:16:27;11.22;65.96
69208;SHT31;70114;47.690;8.898;2023-05-25T04:18:53;10.91;67.21
69208;SHT31;70114;47.690;8.898;2023-05-25T04:21:18;10.98;66.91
69208;SHT31;70114;47.690;8.898;2023-05-25T04:23:43;11.08;66.69
69208;SHT31;70114;47.690;8.898;2023-05-25T04:26:09;11.22;66.45
69208;SHT31;70114;47.690;8.898;2023-05-25T04:28:35;11.16;66.78
69208;SHT31;70114;47.690;8.898;2023-05-25T04:31:05;11.19;66.96
69208;SHT31;70114;47.690;8.898;2023-05-25T04:33:31;11.02;67.74
69208;SHT31;70114;47.690;8.898;2023-05-25T04:35:59;10.91;68.08
69208;SHT31;70114;47.690;8.898;2023-05-25T04:38:24;11.07;68.09
69208;SHT31;70114;47.690;8.898;2023-05-25T04:40:50;10.91;69.14
69208;SHT31;70114;47.690;8.898;2023-05-25T04:43:18;10.87;68.94
69208;SHT31;70114;47.690;8.898;2023-05-25T04:45:44;10.91;69.06
69208;SHT31;70114;47.690;8.898;2023-05-25T04:48:11;10.93;69.00
69208;SHT31;70114;47.690;8.898;2023-05-25T04:50:37;10.91;69.49
69208;SHT31;70114;47.690;8.898;2023-05-25T04:53:04;11.28;68.27
69208;SHT31;70114;47.690;8.898;2023-05-25T04:55:30;11.33;67.97
69208;SHT31;70114;47.690;8.898;2023-05-25T04:57:55;11.35;68.12
69208;SHT31;70114;47.690;8.898;2023-05-25T05:00:21;11.19;68.45
69208;SHT31;70114;47.690;8.898;2023-05-25T05:02:46;11.29;68.71
69208;SHT31;70114;47.690;8.898;2023-05-25T05:05:12;11.23;68.58
69208;SHT31;70114;47.690;8.898;2023-05-25T05:07:37;11.23;68.50
69208;SHT31;70114;47.690;8.898;2023-05-25T05:10:04;11.08;69.21
69208;SHT31;70114;47.690;8.898;2023-05-25T05:12:29;11.42;68.26
69208;SHT31;70114;47.690;8.898;2023-05-25T05:14:55;11.22;68.84
69208;SHT31;70114;47.690;8.898;2023-05-25T05:17:20;11.44;68.42
69208;SHT31;70114;47.690;8.898;2023-05-25T05:19:47;11.52;68.15
69208;SHT31;70114;47.690;8.898;2023-05-25T05:22:12;11.53;67.93
69208;SHT31;70114;47.690;8.898;2023-05-25T05:24:40;11.60;68.15
69208;SHT31;70114;47.690;8.898;2023-05-25T05:27:05;11.65;68.04
69208;SHT31;70114;47.690;8.898;2023-05-25T05:29:31;11.71;67.97
69208;SHT31;70114;47.690;8.898;2023-05-25T05:31:58;11.73;67.91
69208;SHT31;70114;47.690;8.898;2023-05-25T05:34:24;11.69;68.16
69208;SHT31;70114;47.690;8.898;2023-05-25T05:36:49;11.80;67.93
69208;SHT31;70114;47.690;8.898;2023-05-25T05:39:15;11.90;67.98
69208;SHT31;70114;47.690;8.898;2023-05-25T05:41:40;11.91;67.67
69208;SHT31;70114;47.690;8.898;2023-05-25T05:44:09;11.97;67.94
69208;SHT31;70114;47.690;8.898;2023-05-25T05:46:35;11.84;68.35
69208;SHT31;70114;47.690;8.898;2023-05-25T05:49:01;12.04;67.75
69208;SHT31;70114;47.690;8.898;2023-05-25T05:51:26;11.91;68.72
69208;SHT31;70114;47.690;8.898;2023-05-25T05:53:52;11.94;68.63
69208;SHT31;70114;47.690;8.898;2023-05-25T05:56:17;12.17;67.77
69208;SHT31;70114;47.690;8.898;2023-05-25T05:58:43;12.27;67.56
69208;SHT31;70114;47.690;8.898;2023-05-25T06:01:09;12.34;67.31
69208;SHT31;70114;47.690;8.898;2023-05-25T06:03:34;12.41;67.00
69208;SHT31;70114;47.690;8.898;2023-05-25T06:05:59;12.48;66.86
69208;SHT31;70114;47.690;8.898;2023-05-25T06:08:25;12.24;67.81
69208;SHT31;70114;47.690;8.898;2023-05-25T06:10:51;12.67;67.16
69208;SHT31;70114;47.690;8.898;2023-05-25T06:13:17;12.87;67.13
69208;SHT31;70114;47.690;8.898;2023-05-25T06:15:42;12.72;67.71
69208;SHT31;70114;47.690;8.898;2023-05-25T06:18:08;13.07;66.59
69208;SHT31;70114;47.690;8.898;2023-05-25T06:20:33;13.20;66.13
69208;SHT31;70114;47.690;8.898;2023-05-25T06:22:59;13.13;67.02
69208;SHT31;70114;47.690;8.898;2023-05-25T06:25:25;13.08;66.72
69208;SHT31;70114;47.690;8.898;2023-05-25T06:27:51;13.06;66.73
69208;SHT31;70114;47.690;8.898;2023-05-25T06:30:16;13.13;66.55
69208;SHT31;70114;47.690;8.898;2023-05-25T06:32:41;13.35;66.25
69208;SHT31;70114;47.690;8.898;2023-05-25T06:35:08;13.40;66.16
69208;SHT31;70114;47.690;8.898;2023-05-25T06:37:33;13.58;65.73
69208;SHT31;70114;47.690;8.898;2023-05-25T06:40:03;13.54;66.24
69208;SHT31;70114;47.690;8.898;2023-05-25T06:42:29;13.70;66.13
69208;SHT31;70114;47.690;8.898;2023-05-25T06:44:54;13.86;66.30
69208;SHT31;70114;47.690;8.898;2023-05-25T06:47:20;13.68;66.22
69208;SHT31;70114;47.690;8.898;2023-05-25T06:49:45;13.72;67.23
69208;SHT31;70114;47.690;8.898;2023-05-25T06:52:11;13.69;67.35
69208;SHT31;70114;47.690;8.898;2023-05-25T06:54:36;14.03;66.05
69208;SHT31;70114;47.690;8.898;2023-05-25T06:57:01;13.99;66.23
69208;SHT31;70114;47.690;8.898;2023-05-25T06:59:27;14.16;66.13
69208;SHT31;70114;47.690;8.898;2023-05-25T07:01:52;14.26;65.57
69208;SHT31;70114;47.690;8.898;2023-05-25T07:04:20;14.34;65.57
69208;SHT31;70114;47.690;8.898;2023-05-25T07:06:46;14.17;65.07
69208;SHT31;70114;47.690;8.898;2023-05-25T07:09:12;14.37;65.28
69208;SHT31;70114;47.690;8.898;2023-05-25T07:11:37;14.13;66.60
69208;SHT31;70114;47.690;8.898;2023-05-25T07:14:03;14.21;65.98
69208;SHT31;70114;47.690;8.898;2023-05-25T07:16:28;14.14;66.71
69208;SHT31;70114;47.690;8.898;2023-05-25T07:18:54;14.65;65.94
69208;SHT31;70114;47.690;8.898;2023-05-25T07:21:19;14.71;64.95
69208;SHT31;70114;47.690;8.898;2023-05-25T07:23:45;14.33;65.57
69208;SHT31;70114;47.690;8.898;2023-05-25T07:26:10;14.30;65.75
69208;SHT31;70114;47.690;8.898;2023-05-25T07:28:35;14.42;65.80
69208;SHT31;70114;47.690;8.898;2023-05-25T07:31:01;14.60;65.33
69208;SHT31;70114;47.690;8.898;2023-05-25T07:33:26;14.61;64.94
69208;SHT31;70114;47.690;8.898;2023-05-25T07:35:52;14.81;64.86
69208;SHT31;70114;47.690;8.898;2023-05-25T07:38:17;15.12;64.78
69208;SHT31;70114;47.690;8.898;2023-05-25T07:40:43;14.65;65.87
69208;SHT31;70114;47.690;8.898;2023-05-25T07:43:11;15.02;64.97
69208;SHT31;70114;47.690;8.898;2023-05-25T07:45:36;15.00;65.61
69208;SHT31;70114;47.690;8.898;2023-05-25T07:48:02;15.33;63.96
69208;SHT31;70114;47.690;8.898;2023-05-25T07:50:27;15.34;63.63
69208;SHT31;70114;47.690;8.898;2023-05-25T07:52:52;15.39;63.47
69208;SHT31;70114;47.690;8.898;2023-05-25T07:55:18;15.46;63.47
69208;SHT31;70114;47.690;8.898;2023-05-25T07:57:44;15.36;63.69
69208;SHT31;70114;47.690;8.898;2023-05-25T08:00:10;15.68;62.82
69208;SHT31;70114;47.690;8.898;2023-05-25T08:02:35;15.64;62.86
69208;SHT31;70114;47.690;8.898;2023-05-25T08:07:35;15.57;64.59
69208;SHT31;70114;47.690;8.898;2023-05-25T08:10:01;15.18;65.11
69208;SHT31;70114;47.690;8.898;2023-05-25T08:12:27;15.70;63.60
69208;SHT31;70114;47.690;8.898;2023-05-25T08:14:54;15.60;64.36
69208;SHT31;70114;47.690;8.898;2023-05-25T08:17:20;15.88;63.85
69208;SHT31;70114;47.690;8.898;2023-05-25T08:19:45;15.61;64.27
69208;SHT31;70114;47.690;8.898;2023-05-25T08:22:10;15.98;62.95
69208;SHT31;70114;47.690;8.898;2023-05-25T08:24:36;15.43;63.21
69208;SHT31;70114;47.690;8.898;2023-05-25T08:27:01;15.19;65.11
69208;SHT31;70114;47.690;8.898;2023-05-25T08:29:27;15.74;63.72
69208;SHT31;70114;47.690;8.898;2023-05-25T08:31:53;15.47;64.18
69208;SHT31;70114;47.690;8.898;2023-05-25T08:34:18;15.27;64.96
69208;SHT31;70114;47.690;8.898;2023-05-25T08:36:44;14.99;65.02
69208;SHT31;70114;47.690;8.898;2023-05-25T08:39:10;15.53;64.87
69208;SHT31;70114;47.690;8.898;2023-05-25T08:41:39;15.84;65.75
69208;SHT31;70114;47.690;8.898;2023-05-25T08:44:05;16.05;63.24
69208;SHT31;70114;47.690;8.898;2023-05-25T08:46:33;16.30;63.05
69208;SHT31;70114;47.690;8.898;2023-05-25T08:49:05;16.61;61.92
69208;SHT31;70114;47.690;8.898;2023-05-25T08:51:35;16.50;61.68
69208;SHT31;70114;47.690;8.898;2023-05-25T08:54:06;16.05;63.40
69208;SHT31;70114;47.690;8.898;2023-05-25T08:56:38;16.54;63.00
69208;SHT31;70114;47.690;8.898;2023-05-25T08:59:14;16.64;61.47
69208;SHT31;70114;47.690;8.898;2023-05-25T09:01:45;16.74;62.62
69208;SHT31;70114;47.690;8.898;2023-05-25T09:04:11;16.66;61.22
69208;SHT31;70114;47.690;8.898;2023-05-25T09:06:38;17.12;62.78
69208;SHT31;70114;47.690;8.898;2023-05-25T09:09:04;17.04;62.64
69208;SHT31;70114;47.690;8.898;2023-05-25T09:11:30;17.21;60.44
69208;SHT31;70114;47.690;8.898;2023-05-25T09:13:56;16.98;60.73
69208;SHT31;70114;47.690;8.898;2023-05-25T09:16:22;17.22;60.05
69208;SHT31;70114;47.690;8.898;2023-05-25T09:18:48;17.11;61.63
69208;SHT31;70114;47.690;8.898;2023-05-25T09:21:13;16.67;61.29
69208;SHT31;70114;47.690;8.898;2023-05-25T09:23:39;16.81;60.91
69208;SHT31;70114;47.690;8.898;2023-05-25T09:26:05;17.02;60.91
69208;SHT31;70114;47.690;8.898;2023-05-25T09:28:30;17.00;60.87
69208;SHT31;70114;47.690;8.898;2023-05-25T09:30:55;16.87;60.30
69208;SHT31;70114;47.690;8.898;2023-05-25T09:33:21;17.26;61.09
69208;SHT31;70114;47.690;8.898;2023-05-25T09:35:47;17.25;61.36
69208;SHT31;70114;47.690;8.898;2023-05-25T09:38:14;16.80;61.98
69208;SHT31;70114;47.690;8.898;2023-05-25T09:40:40;16.95;62.22
69208;SHT31;70114;47.690;8.898;2023-05-25T09:43:05;17.19;61.65
69208;SHT31;70114;47.690;8.898;2023-05-25T09:45:30;17.02;63.04
69208;SHT31;70114;47.690;8.898;2023-05-25T09:47:57;17.21;61.48
69208;SHT31;70114;47.690;8.898;2023-05-25T09:50:22;17.35;60.18
69208;SHT31;70114;47.690;8.898;2023-05-25T09:52:48;17.39;60.02
69208;SHT31;70114;47.690;8.898;2023-05-25T09:55:14;17.26;60.16
69208;SHT31;70114;47.690;8.898;2023-05-25T09:57:41;17.59;60.68
69208;SHT31;70114;47.690;8.898;2023-05-25T10:00:08;17.66;59.62
69208;SHT31;70114;47.690;8.898;2023-05-25T10:02:35;17.96;59.01
69208;SHT31;70114;47.690;8.898;2023-05-25T10:05:01;17.97;59.38
69208;SHT31;70114;47.690;8.898;2023-05-25T10:07:26;17.74;59.21
69208;SHT31;70114;47.690;8.898;2023-05-25T10:09:53;17.81;60.86
69208;SHT31;70114;47.690;8.898;2023-05-25T10:12:21;17.28;61.41
69208;SHT31;70114;47.690;8.898;2023-05-25T10:14:49;17.86;59.73
69208;SHT31;70114;47.690;8.898;2023-05-25T10:17:20;17.93;59.34
69208;SHT31;70114;47.690;8.898;2023-05-25T10:19:59;18.21;59.25
69208;SHT31;70114;47.690;8.898;2023-05-25T10:25:06;18.69;58.18
69208;SHT31;70114;47.690;8.898;2023-05-25T10:27:40;18.44;59.18
69208;SHT31;70114;47.690;8.898;2023-05-25T10:30:08;18.62;57.70
69208;SHT31;70114;47.690;8.898;2023-05-25T10:32:36;18.80;57.45
69208;SHT31;70114;47.690;8.898;2023-05-25T10:35:03;18.70;58.01
69208;SHT31;70114;47.690;8.898;2023-05-25T10:37:29;18.92;56.66
69208;SHT31;70114;47.690;8.898;2023-05-25T10:39:56;18.18;58.75
69208;SHT31;70114;47.690;8.898;2023-05-25T10:42:22;18.00;60.52
69208;SHT31;70114;47.690;8.898;2023-05-25T10:44:48;18.28;59.96
69208;SHT31;70114;47.690;8.898;2023-05-25T10:47:15;18.56;59.72
69208;SHT31;70114;47.690;8.898;2023-05-25T10:49:52;18.18;58.77
69208;SHT31;70114;47.690;8.898;2023-05-25T10:52:18;18.53;58.23
69208;SHT31;70114;47.690;8.898;2023-05-25T10:54:47;18.48;58.76
69208;SHT31;70114;47.690;8.898;2023-05-25T10:57:21;18.55;59.39
69208;SHT31;70114;47.690;8.898;2023-05-25T10:59:51;19.15;58.76
69208;SHT31;70114;47.690;8.898;2023-05-25T11:02:19;19.50;58.74
69208;SHT31;70114;47.690;8.898;2023-05-25T11:04:48;18.90;58.55
69208;SHT31;70114;47.690;8.898;2023-05-25T11:07:15;18.45;59.24
69208;SHT31;70114;47.690;8.898;2023-05-25T11:09:42;18.12;60.09
69208;SHT31;70114;47.690;8.898;2023-05-25T11:12:18;18.21;60.21
69208;SHT31;70114;47.690;8.898;2023-05-25T11:15:07;18.48;59.78
69208;SHT31;70114;47.690;8.898;2023-05-25T11:17:43;18.44;59.67
69208;SHT31;70114;47.690;8.898;2023-05-25T11:20:20;18.69;59.07
69208;SHT31;70114;47.690;8.898;2023-05-25T11:22:49;19.07;58.75
69208;SHT31;70114;47.690;8.898;2023-05-25T11:28:02;18.82;60.39
69208;SHT31;70114;47.690;8.898;2023-05-25T11:30:28;19.04;59.83
69208;SHT31;70114;47.690;8.898;2023-05-25T11:32:54;19.50;57.67
69208;SHT31;70114;47.690;8.898;2023-05-25T11:35:24;19.57;57.25
69208;SHT31;70114;47.690;8.898;2023-05-25T11:37:50;19.65;56.27
69208;SHT31;70114;47.690;8.898;2023-05-25T11:40:21;19.79;55.87
69208;SHT31;70114;47.690;8.898;2023-05-25T11:42:47;20.28;55.38
69208;SHT31;70114;47.690;8.898;2023-05-25T11:45:13;19.97;55.74
69208;SHT31;70114;47.690;8.898;2023-05-25T11:47:40;20.12;54.56
69208;SHT31;70114;47.690;8.898;2023-05-25T11:50:06;19.80;54.42
69208;SHT31;70114;47.690;8.898;2023-05-25T11:52:31;20.38;56.00
69208;SHT31;70114;47.690;8.898;2023-05-25T11:54:57;20.89;54.62
69208;SHT31;70114;47.690;8.898;2023-05-25T11:57:23;20.99;52.71
69208;SHT31;70114;47.690;8.898;2023-05-25T11:59:55;20.89;52.49
69208;SHT31;70114;47.690;8.898;2023-05-25T12:02:22;21.02;52.65
69208;SHT31;70114;47.690;8.898;2023-05-25T12:04:59;21.51;51.57
69208;SHT31;70114;47.690;8.898;2023-05-25T12:07:26;21.75;50.85
69208;SHT31;70114;47.690;8.898;2023-05-25T12:10:09;21.89;51.06
69208;SHT31;70114;47.690;8.898;2023-05-25T12:12:45;22.06;50.77
69208;SHT31;70114;47.690;8.898;2023-05-25T12:15:13;21.47;52.25
69208;SHT31;70114;47.690;8.898;2023-05-25T12:17:40;21.34;51.76
69208;SHT31;70114;47.690;8.898;2023-05-25T12:20:07;21.95;52.12
69208;SHT31;70114;47.690;8.898;2023-05-25T12:22:33;22.02;50.37
69208;SHT31;70114;47.690;8.898;2023-05-25T12:24:59;21.65;51.97
69208;SHT31;70114;47.690;8.898;2023-05-25T12:27:25;21.07;51.89
69208;SHT31;70114;47.690;8.898;2023-05-25T12:29:50;20.49;54.23
69208;SHT31;70114;47.690;8.898;2023-05-25T12:32:17;21.06;53.32
69208;SHT31;70114;47.690;8.898;2023-05-25T12:34:44;21.65;52.44
69208;SHT31;70114;47.690;8.898;2023-05-25T12:37:25;21.87;50.19
69208;SHT31;70114;47.690;8.898;2023-05-25T12:39:50;21.78;52.25
69208;SHT31;70114;47.690;8.898;2023-05-25T12:42:16;22.02;50.50
69208;SHT31;70114;47.690;8.898;2023-05-25T12:44:43;21.70;50.27
69208;SHT31;70114;47.690;8.898;2023-05-25T12:47:20;21.89;51.23
69208;SHT31;70114;47.690;8.898;2023-05-25T12:49:48;21.82;50.75
69208;SHT31;70114;47.690;8.898;2023-05-25T12:52:35;22.23;49.57
69208;SHT31;70114;47.690;8.898;2023-05-25T12:58:05;23.07;49.12
69208;SHT31;70114;47.690;8.898;2023-05-25T13:00:31;23.08;48.36
69208;SHT31;70114;47.690;8.898;2023-05-25T13:02:57;22.67;49.14
69208;SHT31;70114;47.690;8.898;2023-05-25T13:05:24;22.59;48.78
69208;SHT31;70114;47.690;8.898;2023-05-25T13:07:53;22.83;47.83
69208;SHT31;70114;47.690;8.898;2023-05-25T13:10:18;23.55;47.70
69208;SHT31;70114;47.690;8.898;2023-05-25T13:12:45;22.77;50.89
69208;SHT31;70114;47.690;8.898;2023-05-25T13:15:12;23.69;47.70
69208;SHT31;70114;47.690;8.898;2023-05-25T13:17:43;23.73;47.66
69208;SHT31;70114;47.690;8.898;2023-05-25T13:20:15;23.66;48.18
69208;SHT31;70114;47.690;8.898;2023-05-25T13:22:43;23.65;46.64
69208;SHT31;70114;47.690;8.898;2023-05-25T13:25:12;23.39;47.79
69208;SHT31;70114;47.690;8.898;2023-05-25T13:27:45;24.01;46.58
69208;SHT31;70114;47.690;8.898;2023-05-25T13:30:11;23.69;47.27
69208;SHT31;70114;47.690;8.898;2023-05-25T13:32:37;23.69;46.41
69208;SHT31;70114;47.690;8.898;2023-05-25T13:35:03;23.87;46.12
69208;SHT31;70114;47.690;8.898;2023-05-25T13:37:31;22.36;50.31
69208;SHT31;70114;47.690;8.898;2023-05-25T13:39:57;23.32;48.02
69208;SHT31;70114;47.690;8.898;2023-05-25T13:42:23;22.16;49.05
69208;SHT31;70114;47.690;8.898;2023-05-25T13:44:48;23.05;48.44
69208;SHT31;70114;47.690;8.898;2023-05-25T13:47:13;23.81;47.07
69208;SHT31;70114;47.690;8.898;2023-05-25T13:49:39;23.52;46.62
69208;SHT31;70114;47.690;8.898;2023-05-25T13:52:05;24.36;45.08
69208;SHT31;70114;47.690;8.898;2023-05-25T13:54:30;24.38;45.51
69208;SHT31;70114;47.690;8.898;2023-05-25T13:56:56;24.80;45.08
69208;SHT31;70114;47.690;8.898;2023-05-25T13:59:21;24.87;43.54
69208;SHT31;70114;47.690;8.898;2023-05-25T14:01:46;25.35;41.34
69208;SHT31;70114;47.690;8.898;2023-05-25T14:04:12;25.07;43.62
69208;SHT31;70114;47.690;8.898;2023-05-25T14:06:40;24.07;44.80
69208;SHT31;70114;47.690;8.898;2023-05-25T14:09:05;24.29;43.88
69208;SHT31;70114;47.690;8.898;2023-05-25T14:11:32;23.58;46.98
69208;SHT31;70114;47.690;8.898;2023-05-25T14:13:57;23.33;47.56
69208;SHT31;70114;47.690;8.898;2023-05-25T14:16:23;24.63;44.72
69208;SHT31;70114;47.690;8.898;2023-05-25T14:18:48;24.51;45.94
69208;SHT31;70114;47.690;8.898;2023-05-25T14:24:18;24.99;44.64
69208;SHT31;70114;47.690;8.898;2023-05-25T14:26:43;25.02;43.36
69208;SHT31;70114;47.690;8.898;2023-05-25T14:29:09;26.19;40.90
69208;SHT31;70114;47.690;8.898;2023-05-25T14:31:34;25.64;42.88
69208;SHT31;70114;47.690;8.898;2023-05-25T14:33:59;25.68;43.18
69208;SHT31;70114;47.690;8.898;2023-05-25T14:36:25;23.97;44.17
69208;SHT31;70114;47.690;8.898;2023-05-25T14:38:50;24.90;43.59
69208;SHT31;70114;47.690;8.898;2023-05-25T14:41:16;25.61;42.58
69208;SHT31;70114;47.690;8.898;2023-05-25T14:43:41;25.21;42.26
69208;SHT31;70114;47.690;8.898;2023-05-25T14:46:06;25.54;42.59
69208;SHT31;70114;47.690;8.898;2023-05-25T14:48:42;25.47;43.16
69208;SHT31;70114;47.690;8.898;2023-05-25T14:51:08;25.03;43.60
69208;SHT31;70114;47.690;8.898;2023-05-25T14:53:33;26.37;41.09
69208;SHT31;70114;47.690;8.898;2023-05-25T14:55:58;25.35;43.58
69208;SHT31;70114;47.690;8.898;2023-05-25T14:58:24;25.72;41.40
69208;SHT31;70114;47.690;8.898;2023-05-25T15:00:52;26.13;41.95
69208;SHT31;70114;47.690;8.898;2023-05-25T15:03:18;24.22;47.11
69208;SHT31;70114;47.690;8.898;2023-05-25T15:05:48;23.96;44.49
69208;SHT31;70114;47.690;8.898;2023-05-25T15:08:14;23.33;46.27
69208;SHT31;70114;47.690;8.898;2023-05-25T15:10:39;24.45;44.26
69208;SHT31;70114;47.690;8.898;2023-05-25T15:13:05;25.35;43.06
69208;SHT31;70114;47.690;8.898;2023-05-25T15:15:30;24.69;43.00
69208;SHT31;70114;47.690;8.898;2023-05-25T15:17:58;25.69;43.07
69208;SHT31;70114;47.690;8.898;2023-05-25T15:20:34;26.34;41.11
69208;SHT31;70114;47.690;8.898;2023-05-25T15:22:59;26.45;40.45
69208;SHT31;70114;47.690;8.898;2023-05-25T15:25:25;26.68;40.22
69208;SHT31;70114;47.690;8.898;2023-05-25T15:27:50;26.55;40.98
69208;SHT31;70114;47.690;8.898;2023-05-25T15:30:16;26.09;41.33
69208;SHT31;70114;47.690;8.898;2023-05-25T15:32:43;25.58;42.15
69208;SHT31;70114;47.690;8.898;2023-05-25T15:35:08;24.41;44.19
69208;SHT31;70114;47.690;8.898;2023-05-25T15:37:34;24.92;43.18
69208;SHT31;70114;47.690;8.898;2023-05-25T15:40:12;25.42;41.68
69208;SHT31;70114;47.690;8.898;2023-05-25T15:42:40;25.61;41.82
69208;SHT31;70114;47.690;8.898;2023-05-25T15:45:06;25.67;41.89
69208;SHT31;70114;47.690;8.898;2023-05-25T15:47:31;26.03;40.74
69208;SHT31;70114;47.690;8.898;2023-05-25T15:49:57;24.68;42.39
69208;SHT31;70114;47.690;8.898;2023-05-25T15:52:22;25.61;41.19
69208;SHT31;70114;47.690;8.898;2023-05-25T15:54:48;25.17;41.88
69208;SHT31;70114;47.690;8.898;2023-05-25T15:57:13;25.47;41.81
69208;SHT31;70114;47.690;8.898;2023-05-25T15:59:38;25.26;42.67
69208;SHT31;70114;47.690;8.898;2023-05-25T16:02:04;25.85;41.23
69208;SHT31;70114;47.690;8.898;2023-05-25T16:04:29;26.41;40.20